Terminal Aerodrome Forecast
Issued by NWS

Home | Current Version | Previous Version | Text Only | Print | Product List | Glossary On
Versions: 1 2 3 4 5 6 7 8 9 10 11 12 13 14 15 16 17 18 19 20 21 22
000
FTUS43 KMQT 241400 AAC
TAFSAW
TAF AMD
KSAW 241454Z 2415/2512 21004KT 1/4SM FG OVC001
     FM241500 21007KT 4SM BR OVC006
      TEMPO 2415/2417 1/2SM FG SCT001 BKN003
     FM241700 20009KT P6SM SCT010
      TEMPO 2417/2418 5SM BR SCT003 BKN005
     FM241900 20011KT P6SM SCT200
     FM250400 23009KT 5SM BR BKN004
     FM250900 26010KT P6SM SCT008
      AMD LTD TO CLD VIS AND WIND 2502/2510=

USA.gov is the U.S. government's official web portal to all federal, state and local government web resources and services.